createdAt,value
2023-02-25T00:00:03.232Z,997.22
2023-02-25T00:01:02.781Z,997.23
2023-02-25T00:02:04.362Z,997.30
2023-02-25T00:03:02.386Z,997.27
2023-02-25T00:04:02.760Z,997.34
2023-02-25T00:05:02.605Z,997.32
2023-02-25T00:06:02.543Z,997.37
2023-02-25T00:07:02.500Z,997.36
2023-02-25T00:08:02.885Z,997.36
2023-02-25T00:09:02.861Z,997.35
2023-02-25T00:10:02.695Z,997.39
2023-02-25T00:11:02.934Z,997.32
2023-02-25T00:12:02.523Z,997.36
2023-02-25T00:13:17.069Z,997.29
2023-02-25T00:14:02.822Z,997.29
2023-02-25T00:15:02.667Z,997.31
2023-02-25T00:16:02.819Z,997.26
2023-02-25T00:17:02.316Z,997.34
2023-02-25T00:18:02.636Z,997.33
2023-02-25T00:19:02.705Z,997.39
2023-02-25T00:20:02.589Z,997.32
2023-02-25T00:21:02.520Z,997.39
2023-02-25T00:22:02.713Z,997.34
2023-02-25T00:23:03.059Z,997.34
2023-02-25T00:24:15.501Z,997.31
2023-02-25T00:25:02.714Z,997.39
2023-02-25T00:26:02.655Z,997.40
2023-02-25T00:27:02.140Z,997.35
2023-02-25T00:28:02.510Z,997.43
2023-02-25T00:29:02.540Z,997.47
2023-02-25T00:30:02.713Z,997.44
2023-02-25T00:31:02.544Z,997.45
2023-02-25T00:32:03.085Z,997.48
2023-02-25T00:33:02.752Z,997.43
2023-02-25T00:34:02.360Z,997.47
2023-02-25T00:35:02.416Z,997.43
2023-02-25T00:36:02.885Z,997.53
2023-02-25T00:37:03.096Z,997.45
2023-02-25T00:38:14.860Z,997.48
2023-02-25T00:39:03.143Z,997.48
2023-02-25T00:40:02.763Z,997.44
2023-02-25T00:41:02.899Z,997.48
2023-02-25T00:42:02.481Z,997.47
2023-02-25T00:43:02.457Z,997.45
2023-02-25T00:44:02.120Z,997.46
2023-02-25T00:45:02.496Z,997.43
2023-02-25T00:46:02.093Z,997.47
2023-02-25T00:47:02.853Z,997.42
2023-02-25T00:48:02.918Z,997.43
2023-02-25T00:49:02.437Z,997.42
2023-02-25T00:50:03.014Z,997.43
2023-02-25T00:51:02.481Z,997.45
2023-02-25T00:52:02.833Z,997.45
2023-02-25T00:53:02.727Z,997.46
2023-02-25T00:54:02.809Z,997.43
2023-02-25T00:55:03.242Z,997.45
2023-02-25T00:56:03.236Z,997.46
2023-02-25T00:57:02.334Z,997.44
2023-02-25T00:58:02.353Z,997.48
2023-02-25T00:59:02.550Z,997.46
2023-02-25T01:00:02.233Z,997.44
2023-02-25T01:01:02.367Z,997.42
2023-02-25T01:02:03.275Z,997.44
2023-02-25T01:03:03.160Z,997.41
2023-02-25T01:04:03.284Z,997.45
2023-02-25T01:05:03.078Z,997.48
2023-02-25T01:06:03.065Z,997.45
2023-02-25T01:07:03.739Z,997.40
2023-02-25T01:08:02.594Z,997.44
2023-02-25T01:09:03.062Z,997.46
2023-02-25T01:10:03.092Z,997.47
2023-02-25T01:11:02.785Z,997.46
2023-02-25T01:12:03.176Z,997.40
2023-02-25T01:13:03.269Z,997.46
2023-02-25T01:14:03.301Z,997.44
2023-02-25T01:15:02.801Z,997.49
2023-02-25T01:16:03.102Z,997.47
2023-02-25T01:17:02.916Z,997.44
2023-02-25T01:18:03.273Z,997.46
2023-02-25T01:19:02.630Z,997.44
2023-02-25T01:20:02.970Z,997.46
2023-02-25T01:21:03.034Z,997.44
2023-02-25T01:22:03.159Z,997.46
2023-02-25T01:23:03.417Z,997.45
2023-02-25T01:24:03.295Z,997.43
2023-02-25T01:25:03.062Z,997.42
2023-02-25T01:26:02.858Z,997.39
2023-02-25T01:27:02.625Z,997.42
2023-02-25T01:28:02.305Z,997.44
2023-02-25T01:29:02.910Z,997.42
2023-02-25T01:30:02.601Z,997.46
2023-02-25T01:31:02.801Z,997.43
2023-02-25T01:32:03.399Z,997.43
2023-02-25T01:33:03.186Z,997.45
2023-02-25T01:34:03.114Z,997.46
2023-02-25T01:35:02.851Z,997.46
2023-02-25T01:36:03.237Z,997.50
2023-02-25T01:37:02.560Z,997.46
2023-02-25T01:38:02.502Z,997.45
2023-02-25T01:39:02.359Z,997.42
2023-02-25T01:40:02.691Z,997.43
2023-02-25T01:41:02.297Z,997.47
2023-02-25T01:42:03.212Z,997.43
2023-02-25T01:43:02.802Z,997.46
2023-02-25T01:44:02.543Z,997.48
2023-02-25T01:45:02.993Z,997.49
2023-02-25T01:46:02.956Z,997.51
2023-02-25T01:47:02.712Z,997.49
2023-02-25T01:48:02.451Z,997.52
2023-02-25T01:49:02.745Z,997.58
2023-02-25T01:50:02.340Z,997.55
2023-02-25T01:51:02.487Z,997.57
2023-02-25T01:52:02.868Z,997.59
2023-02-25T01:53:03.182Z,997.58
2023-02-25T01:54:02.612Z,997.61
2023-02-25T01:55:02.720Z,997.61
2023-02-25T01:56:02.765Z,997.56
2023-02-25T01:57:02.499Z,997.51
2023-02-25T01:58:02.384Z,997.52
2023-02-25T01:59:01.938Z,997.50
2023-02-25T02:00:02.436Z,997.49
2023-02-25T02:01:02.031Z,997.55
2023-02-25T02:02:03.567Z,997.50
2023-02-25T02:03:03.417Z,997.50
2023-02-25T02:04:03.515Z,997.48
2023-02-25T02:05:03.202Z,997.49
2023-02-25T02:06:03.649Z,997.46
2023-02-25T02:07:02.709Z,997.46
2023-02-25T02:08:02.854Z,997.46
2023-02-25T02:09:03.515Z,997.48
2023-02-25T02:10:02.780Z,997.46
2023-02-25T02:11:03.202Z,997.51
2023-02-25T02:12:03.372Z,997.48
2023-02-25T02:13:03.229Z,997.50
2023-02-25T02:14:03.519Z,997.46
2023-02-25T02:15:03.268Z,997.48
2023-02-25T02:16:03.067Z,997.50
2023-02-25T02:17:02.506Z,997.52
2023-02-25T02:18:02.966Z,997.53
2023-02-25T02:19:02.791Z,997.51
2023-02-25T02:20:02.832Z,997.53
2023-02-25T02:21:02.534Z,997.49
2023-02-25T02:22:02.656Z,997.51
2023-02-25T02:23:02.605Z,997.51
2023-02-25T02:24:02.917Z,997.51
2023-02-25T02:25:02.743Z,997.49
2023-02-25T02:26:02.754Z,997.49
2023-02-25T02:27:03.133Z,997.52
2023-02-25T02:28:03.025Z,997.52
2023-02-25T02:29:02.907Z,997.49
2023-02-25T02:30:03.275Z,997.47
2023-02-25T02:31:03.000Z,997.47
2023-02-25T02:32:03.463Z,997.55
2023-02-25T02:33:03.631Z,997.54
2023-02-25T02:34:03.362Z,997.54
2023-02-25T02:35:03.336Z,997.57
2023-02-25T02:36:03.416Z,997.58
2023-02-25T02:37:03.065Z,997.52
2023-02-25T02:38:02.958Z,997.56
2023-02-25T02:39:02.879Z,997.53
2023-02-25T02:40:03.033Z,997.56
2023-02-25T02:41:03.025Z,997.55
2023-02-25T02:42:03.022Z,997.56
2023-02-25T02:43:02.764Z,997.58
2023-02-25T02:44:03.079Z,997.58
2023-02-25T02:45:02.440Z,997.61
2023-02-25T02:46:02.766Z,997.62
2023-02-25T02:47:03.364Z,997.59
2023-02-25T02:48:03.004Z,997.61
2023-02-25T02:49:03.191Z,997.63
2023-02-25T02:50:03.297Z,997.62
2023-02-25T02:51:03.431Z,997.61
2023-02-25T02:52:02.996Z,997.64
2023-02-25T02:53:02.648Z,997.64
2023-02-25T02:54:02.995Z,997.65
2023-02-25T02:55:02.727Z,997.57
2023-02-25T02:56:02.808Z,997.60
2023-02-25T02:57:03.072Z,997.63
2023-02-25T02:58:03.325Z,997.60
2023-02-25T02:59:02.972Z,997.61
2023-02-25T03:00:03.235Z,997.58
2023-02-25T03:01:03.429Z,997.56
2023-02-25T03:02:02.488Z,997.57
2023-02-25T03:03:02.068Z,997.65
2023-02-25T03:04:02.273Z,997.65
2023-02-25T03:05:02.202Z,997.63
2023-02-25T03:06:02.616Z,997.56
2023-02-25T03:07:03.118Z,997.63
2023-02-25T03:08:03.197Z,997.62
2023-02-25T03:09:02.909Z,997.64
2023-02-25T03:10:03.255Z,997.65
2023-02-25T03:11:02.741Z,997.68
2023-02-25T03:12:03.288Z,997.64
2023-02-25T03:13:03.550Z,997.63
2023-02-25T03:14:03.035Z,997.64
2023-02-25T03:15:03.238Z,997.63
2023-02-25T03:16:02.949Z,997.63
2023-02-25T03:17:02.816Z,997.66
2023-02-25T03:18:02.599Z,997.65
2023-02-25T03:19:02.773Z,997.63
2023-02-25T03:20:02.664Z,997.67
2023-02-25T03:21:02.572Z,997.68
2023-02-25T03:22:02.823Z,997.70
2023-02-25T03:23:02.974Z,997.68
2023-02-25T03:24:02.825Z,997.65
2023-02-25T03:25:03.005Z,997.67
2023-02-25T03:26:02.942Z,997.69
2023-02-25T03:27:03.187Z,997.70
2023-02-25T03:28:03.269Z,997.70
2023-02-25T03:29:03.168Z,997.65
2023-02-25T03:30:02.719Z,997.71
2023-02-25T03:31:02.820Z,997.68
2023-02-25T03:32:02.627Z,997.68
2023-02-25T03:33:02.548Z,997.66
2023-02-25T03:34:02.520Z,997.68
2023-02-25T03:35:02.862Z,997.72
2023-02-25T03:36:02.921Z,997.69
2023-02-25T03:37:02.907Z,997.75
2023-02-25T03:38:02.833Z,997.78
2023-02-25T03:39:02.510Z,997.73
2023-02-25T03:40:02.364Z,997.73
2023-02-25T03:41:02.403Z,997.73
2023-02-25T03:42:02.930Z,997.78
2023-02-25T03:43:03.033Z,997.73
2023-02-25T03:44:02.853Z,997.73
2023-02-25T03:45:02.658Z,997.71
2023-02-25T03:46:02.987Z,997.71
2023-02-25T03:47:02.666Z,997.73
2023-02-25T03:48:02.634Z,997.73
2023-02-25T03:49:02.491Z,997.74
2023-02-25T03:50:02.492Z,997.77
2023-02-25T03:51:02.725Z,997.75
2023-02-25T03:52:02.582Z,997.76
2023-02-25T03:53:02.570Z,997.76
2023-02-25T03:54:02.810Z,997.76
2023-02-25T03:55:02.840Z,997.76
2023-02-25T03:56:02.828Z,997.80
2023-02-25T03:57:02.779Z,997.72
2023-02-25T03:58:03.058Z,997.75
2023-02-25T03:59:02.906Z,997.72
2023-02-25T04:00:02.994Z,997.81
2023-02-25T04:01:03.029Z,997.78
2023-02-25T04:02:02.313Z,997.77
2023-02-25T04:03:02.090Z,997.79
2023-02-25T04:04:02.104Z,997.81
2023-02-25T04:05:01.899Z,997.80
2023-02-25T04:06:01.989Z,997.86
2023-02-25T04:07:02.687Z,997.81
2023-02-25T04:08:02.681Z,997.84
2023-02-25T04:09:02.719Z,997.82
2023-02-25T04:10:02.884Z,997.82
2023-02-25T04:11:02.558Z,997.83
2023-02-25T04:12:02.220Z,997.86
2023-02-25T04:13:02.043Z,997.82
2023-02-25T04:14:02.356Z,997.83
2023-02-25T04:15:02.168Z,997.85
2023-02-25T04:16:02.073Z,997.84
2023-02-25T04:17:02.520Z,997.86
2023-02-25T04:18:02.588Z,997.87
2023-02-25T04:19:02.768Z,997.84
2023-02-25T04:20:02.499Z,997.82
2023-02-25T04:21:02.396Z,997.82
2023-02-25T04:22:02.167Z,997.80
2023-02-25T04:23:01.969Z,997.82
2023-02-25T04:24:02.360Z,997.86
2023-02-25T04:25:02.393Z,997.84
2023-02-25T04:26:02.463Z,997.89
2023-02-25T04:27:02.886Z,997.86
2023-02-25T04:28:02.601Z,997.88
2023-02-25T04:29:02.741Z,997.85
2023-02-25T04:30:02.696Z,997.84
2023-02-25T04:31:02.975Z,997.85
2023-02-25T04:32:03.168Z,997.85
2023-02-25T04:33:02.930Z,997.84
2023-02-25T04:34:03.042Z,997.86
2023-02-25T04:35:02.678Z,997.88
2023-02-25T04:36:02.813Z,997.95
2023-02-25T04:37:02.330Z,997.92
2023-02-25T04:38:01.965Z,997.90
2023-02-25T04:39:02.053Z,997.96
2023-02-25T04:40:02.237Z,997.97
2023-02-25T04:41:02.034Z,997.99
2023-02-25T04:42:02.586Z,997.96
2023-02-25T04:43:02.341Z,997.95
2023-02-25T04:44:02.632Z,997.94
2023-02-25T04:45:02.161Z,997.96
2023-02-25T04:46:02.419Z,997.98
2023-02-25T04:47:02.274Z,997.98
2023-02-25T04:48:02.114Z,998.00
2023-02-25T04:49:01.754Z,998.03
2023-02-25T04:50:02.299Z,998.01
2023-02-25T04:51:01.644Z,997.95
2023-02-25T04:52:01.956Z,997.98
2023-02-25T04:53:02.589Z,997.97
2023-02-25T04:54:02.048Z,997.89
2023-02-25T04:55:02.272Z,997.92
2023-02-25T04:56:02.323Z,997.89
2023-02-25T04:57:02.737Z,997.93
2023-02-25T04:58:02.545Z,997.93
2023-02-25T04:59:02.776Z,997.96
2023-02-25T05:00:02.900Z,997.93
2023-02-25T05:01:03.021Z,997.98
2023-02-25T05:02:02.461Z,997.98
2023-02-25T05:03:02.325Z,997.95
2023-02-25T05:04:02.115Z,997.98
2023-02-25T05:05:02.024Z,997.96
2023-02-25T05:06:02.168Z,997.93
2023-02-25T05:07:02.774Z,997.91
2023-02-25T05:08:02.828Z,997.89
2023-02-25T05:09:02.512Z,997.88
2023-02-25T05:10:02.748Z,997.87
2023-02-25T05:11:02.987Z,997.84
2023-02-25T05:12:02.557Z,997.81
2023-02-25T05:13:02.475Z,997.83
2023-02-25T05:14:02.450Z,997.85
2023-02-25T05:15:02.564Z,997.87
2023-02-25T05:16:02.930Z,997.90
2023-02-25T05:17:02.107Z,997.97
2023-02-25T05:18:01.752Z,997.92
2023-02-25T05:19:02.105Z,997.96
2023-02-25T05:20:01.905Z,997.95
2023-02-25T05:21:02.289Z,997.96
2023-02-25T05:22:01.915Z,997.96
2023-02-25T05:23:01.897Z,998.00
2023-02-25T05:24:02.502Z,998.01
2023-02-25T05:25:02.006Z,997.97
2023-02-25T05:26:02.101Z,997.97
2023-02-25T05:27:02.772Z,997.97
2023-02-25T05:28:02.607Z,997.97
2023-02-25T05:29:02.658Z,997.94
2023-02-25T05:30:02.853Z,997.92
2023-02-25T05:31:02.431Z,997.90
2023-02-25T05:32:03.153Z,997.92
2023-02-25T05:33:03.185Z,997.88
2023-02-25T05:34:02.842Z,997.96
2023-02-25T05:35:02.795Z,997.89
2023-02-25T05:36:02.827Z,997.87
2023-02-25T05:37:02.928Z,997.83
2023-02-25T05:38:02.536Z,997.85
2023-02-25T05:39:02.526Z,997.86
2023-02-25T05:40:02.618Z,997.87
2023-02-25T05:41:03.038Z,997.81
2023-02-25T05:42:01.785Z,997.81
2023-02-25T05:43:01.908Z,997.85
2023-02-25T05:44:01.993Z,997.79
2023-02-25T05:45:02.084Z,997.81
2023-02-25T05:46:01.740Z,997.80
2023-02-25T05:47:03.026Z,997.80
2023-02-25T05:48:02.363Z,997.84
2023-02-25T05:49:02.472Z,997.86
2023-02-25T05:50:02.277Z,997.89
2023-02-25T05:51:03.074Z,997.87
2023-02-25T05:52:02.544Z,997.89
2023-02-25T05:53:02.107Z,997.92
2023-02-25T05:54:02.364Z,997.95
2023-02-25T05:55:02.084Z,997.99
2023-02-25T05:56:02.323Z,997.96
2023-02-25T05:57:02.456Z,997.97
2023-02-25T05:58:02.310Z,997.98
2023-02-25T05:59:02.825Z,998.01
2023-02-25T06:00:02.896Z,997.94
2023-02-25T06:01:02.400Z,997.95
2023-02-25T06:02:03.431Z,997.94
2023-02-25T06:03:03.141Z,998.03
2023-02-25T06:04:03.508Z,998.05
2023-02-25T06:05:03.483Z,998.05
2023-02-25T06:06:03.563Z,998.01
2023-02-25T06:07:03.316Z,997.99
2023-02-25T06:08:03.341Z,998.03
2023-02-25T06:09:03.545Z,998.05
2023-02-25T06:10:03.806Z,998.03
2023-02-25T06:11:03.708Z,998.05
2023-02-25T06:12:03.153Z,998.07
2023-02-25T06:13:02.704Z,998.06
2023-02-25T06:14:02.629Z,998.12
2023-02-25T06:15:02.872Z,998.15
2023-02-25T06:16:02.644Z,998.17
2023-02-25T06:17:02.552Z,998.16
2023-02-25T06:18:03.237Z,998.14
2023-02-25T06:19:02.863Z,998.18
2023-02-25T06:20:03.161Z,998.18
2023-02-25T06:21:02.796Z,998.19
2023-02-25T06:22:02.892Z,998.20
2023-02-25T06:23:03.420Z,998.22
2023-02-25T06:24:05.540Z,998.24
2023-02-25T06:25:03.516Z,998.28
2023-02-25T06:26:03.420Z,998.26
2023-02-25T06:27:03.075Z,998.24
2023-02-25T06:28:03.465Z,998.28
2023-02-25T06:29:03.568Z,998.26
2023-02-25T06:30:03.006Z,998.28
2023-02-25T06:31:03.258Z,998.28
2023-02-25T06:32:02.616Z,998.25
2023-02-25T06:33:02.535Z,998.27
2023-02-25T06:34:02.508Z,998.26
2023-02-25T06:35:02.302Z,998.28
2023-02-25T06:36:02.597Z,998.27
2023-02-25T06:37:03.034Z,998.27
2023-02-25T06:38:02.420Z,998.27
2023-02-25T06:39:02.794Z,998.31
2023-02-25T06:40:03.037Z,998.40
2023-02-25T06:41:02.849Z,998.38
2023-02-25T06:42:02.637Z,998.41
2023-02-25T06:43:03.197Z,998.37
2023-02-25T06:44:03.063Z,998.41
2023-02-25T06:45:03.090Z,998.38
2023-02-25T06:46:02.993Z,998.40
2023-02-25T06:47:03.160Z,998.42
2023-02-25T06:48:03.303Z,998.41
2023-02-25T06:49:02.907Z,998.44
2023-02-25T06:50:03.011Z,998.48
2023-02-25T06:51:03.080Z,998.51
2023-02-25T06:52:03.555Z,998.55
2023-02-25T06:53:02.976Z,998.51
2023-02-25T06:54:03.202Z,998.53
2023-02-25T06:55:02.936Z,998.54
2023-02-25T06:56:02.975Z,998.54
2023-02-25T06:57:02.530Z,998.55
2023-02-25T06:58:02.614Z,998.54
2023-02-25T06:59:02.524Z,998.60
2023-02-25T07:00:02.975Z,998.66
2023-02-25T07:01:02.648Z,998.70
2023-02-25T07:02:02.609Z,998.73
2023-02-25T07:03:03.138Z,998.71
2023-02-25T07:04:02.995Z,998.67
2023-02-25T07:05:02.826Z,998.66
2023-02-25T07:06:03.142Z,998.69
2023-02-25T07:07:02.989Z,998.69
2023-02-25T07:08:03.148Z,998.74
2023-02-25T07:09:02.738Z,998.70
2023-02-25T07:10:03.137Z,998.71
2023-02-25T07:11:03.185Z,998.72
2023-02-25T07:12:03.247Z,998.70
2023-02-25T07:13:03.135Z,998.74
2023-02-25T07:14:03.277Z,998.71
2023-02-25T07:15:02.872Z,998.73
2023-02-25T07:16:02.686Z,998.70
2023-02-25T07:17:02.238Z,998.74
2023-02-25T07:18:02.008Z,998.72
2023-02-25T07:19:02.276Z,998.73
2023-02-25T07:20:02.156Z,998.76
2023-02-25T07:21:02.234Z,998.74
2023-02-25T07:22:01.872Z,998.70
2023-02-25T07:23:02.337Z,998.75
2023-02-25T07:24:02.195Z,998.73
2023-02-25T07:25:01.988Z,998.76
2023-02-25T07:26:01.962Z,998.77
2023-02-25T07:27:02.043Z,998.83
2023-02-25T07:28:02.493Z,998.79
2023-02-25T07:29:02.491Z,998.79
2023-02-25T07:30:02.313Z,998.82
2023-02-25T07:31:02.668Z,998.84
2023-02-25T07:32:02.564Z,998.86
2023-02-25T07:33:03.096Z,998.88
2023-02-25T07:34:02.592Z,998.92
2023-02-25T07:35:02.518Z,998.87
2023-02-25T07:36:02.781Z,998.91
2023-02-25T07:37:02.149Z,998.92
2023-02-25T07:38:02.221Z,998.93
2023-02-25T07:39:02.020Z,998.93
2023-02-25T07:40:01.749Z,998.94
2023-02-25T07:41:02.051Z,998.93
2023-02-25T07:42:02.498Z,998.92
2023-02-25T07:43:02.896Z,998.89
2023-02-25T07:44:02.796Z,998.92
2023-02-25T07:45:02.742Z,998.88
2023-02-25T07:46:02.894Z,998.91
2023-02-25T07:47:02.245Z,998.86
2023-02-25T07:48:01.620Z,998.86
2023-02-25T07:49:01.713Z,998.80
2023-02-25T07:50:02.249Z,998.85
2023-02-25T07:51:01.609Z,998.88
2023-02-25T07:52:01.992Z,998.88
2023-02-25T07:53:01.798Z,998.85
2023-02-25T07:54:02.222Z,998.83
2023-02-25T07:55:01.812Z,998.85
2023-02-25T07:56:01.683Z,998.84
2023-02-25T07:57:02.002Z,998.82
2023-02-25T07:58:02.116Z,998.86
2023-02-25T07:59:02.073Z,998.84
2023-02-25T08:00:02.035Z,998.83
2023-02-25T08:01:01.772Z,998.84
2023-02-25T08:02:02.485Z,998.90
2023-02-25T08:03:01.856Z,998.90
2023-02-25T08:04:02.521Z,998.95
2023-02-25T08:05:01.815Z,998.93
2023-02-25T08:06:01.894Z,998.93
2023-02-25T08:07:02.322Z,998.92
2023-02-25T08:08:02.230Z,998.98
2023-02-25T08:09:02.011Z,999.00
2023-02-25T08:10:02.608Z,999.02
2023-02-25T08:11:02.595Z,999.03
2023-02-25T08:12:02.713Z,999.04
2023-02-25T08:13:02.825Z,999.03
2023-02-25T08:14:02.299Z,999.03
2023-02-25T08:15:02.826Z,999.05
2023-02-25T08:16:02.700Z,999.00
2023-02-25T08:17:02.027Z,999.07
2023-02-25T08:18:02.253Z,999.09
2023-02-25T08:19:02.240Z,999.09
2023-02-25T08:20:02.235Z,999.10
2023-02-25T08:21:02.993Z,999.08
2023-02-25T08:22:02.111Z,999.09
2023-02-25T08:23:02.238Z,999.07
2023-02-25T08:24:02.173Z,999.08
2023-02-25T08:25:02.219Z,999.05
2023-02-25T08:26:02.477Z,999.08
2023-02-25T08:27:02.147Z,999.03
2023-02-25T08:28:02.033Z,999.02
2023-02-25T08:29:01.768Z,999.02
2023-02-25T08:30:02.232Z,999.08
2023-02-25T08:31:02.452Z,999.02
2023-02-25T08:32:02.756Z,999.04
2023-02-25T08:33:02.943Z,999.06
2023-02-25T08:34:02.409Z,999.06
2023-02-25T08:35:02.751Z,999.03
2023-02-25T08:36:02.510Z,999.03
2023-02-25T08:37:02.258Z,999.05
2023-02-25T08:38:02.015Z,999.06
2023-02-25T08:39:02.017Z,999.05
2023-02-25T08:40:02.254Z,999.01
2023-02-25T08:41:01.990Z,999.01
2023-02-25T08:42:02.429Z,999.07
2023-02-25T08:43:02.480Z,999.05
2023-02-25T08:44:02.132Z,999.10
2023-02-25T08:45:02.098Z,999.10
2023-02-25T08:46:01.912Z,999.13
2023-02-25T08:47:02.599Z,999.14
2023-02-25T08:48:02.490Z,999.14
2023-02-25T08:49:02.649Z,999.12
2023-02-25T08:50:02.572Z,999.12
2023-02-25T08:51:02.257Z,999.07
2023-02-25T08:52:01.694Z,999.08
2023-02-25T08:53:01.977Z,999.05
2023-02-25T08:54:02.130Z,999.02
2023-02-25T08:55:01.634Z,999.05
2023-02-25T08:56:02.070Z,999.05
2023-02-25T08:57:02.125Z,999.08
2023-02-25T08:58:02.475Z,999.07
2023-02-25T08:59:02.409Z,999.06
2023-02-25T09:00:04.345Z,999.03
2023-02-25T09:01:01.950Z,999.07
2023-02-25T09:02:03.224Z,999.09
2023-02-25T09:03:03.300Z,999.13
2023-02-25T09:04:03.261Z,999.16
2023-02-25T09:05:03.145Z,999.16
2023-02-25T09:06:03.342Z,999.13
2023-02-25T09:07:02.872Z,999.14
2023-02-25T09:08:02.760Z,999.09
2023-02-25T09:09:02.915Z,999.11
2023-02-25T09:10:02.631Z,999.13
2023-02-25T09:11:02.355Z,999.07
2023-02-25T09:12:02.980Z,999.05
2023-02-25T09:13:02.375Z,999.03
2023-02-25T09:14:03.062Z,999.05
2023-02-25T09:15:02.827Z,998.97
2023-02-25T09:16:02.777Z,998.98
2023-02-25T09:17:03.260Z,998.96
2023-02-25T09:18:03.348Z,999.00
2023-02-25T09:19:02.735Z,999.01
2023-02-25T09:20:02.921Z,998.93
2023-02-25T09:21:02.891Z,999.00
2023-02-25T09:22:02.763Z,999.00
2023-02-25T09:23:02.655Z,998.97
2023-02-25T09:24:02.615Z,999.06
2023-02-25T09:25:02.684Z,998.93
2023-02-25T09:26:02.961Z,998.95
2023-02-25T09:27:02.641Z,999.07
2023-02-25T09:28:02.504Z,999.07
2023-02-25T09:29:02.705Z,999.08
2023-02-25T09:30:02.523Z,999.08
2023-02-25T09:31:02.569Z,999.14
2023-02-25T09:32:03.317Z,999.14
2023-02-25T09:33:03.534Z,999.18
2023-02-25T09:34:03.098Z,999.18
2023-02-25T09:35:02.992Z,999.20
2023-02-25T09:36:03.013Z,999.21
2023-02-25T09:37:03.343Z,999.17
2023-02-25T09:38:03.153Z,999.23
2023-02-25T09:39:03.395Z,999.21
2023-02-25T09:40:03.127Z,999.26
2023-02-25T09:41:03.112Z,999.23
2023-02-25T09:42:02.798Z,999.26
2023-02-25T09:43:02.455Z,999.31
2023-02-25T09:44:02.635Z,999.32
2023-02-25T09:45:02.577Z,999.33
2023-02-25T09:46:02.753Z,999.27
2023-02-25T09:47:03.106Z,999.29
2023-02-25T09:48:02.705Z,999.29
2023-02-25T09:49:02.774Z,999.29
2023-02-25T09:50:02.620Z,999.26
2023-02-25T09:51:03.025Z,999.24
2023-02-25T09:52:02.626Z,999.29
2023-02-25T09:53:02.784Z,999.27
2023-02-25T09:54:02.600Z,999.24
2023-02-25T09:55:02.558Z,999.27
2023-02-25T09:56:02.502Z,999.27
2023-02-25T09:57:02.226Z,999.35
2023-02-25T09:58:02.364Z,999.34
2023-02-25T09:59:02.142Z,999.39
2023-02-25T10:00:02.281Z,999.39
2023-02-25T10:01:02.454Z,999.36
2023-02-25T10:02:02.415Z,999.35
2023-02-25T10:03:02.483Z,999.43
2023-02-25T10:04:02.476Z,999.44
2023-02-25T10:05:02.487Z,999.43
2023-02-25T10:06:02.381Z,999.46
2023-02-25T10:07:03.691Z,999.47
2023-02-25T10:08:03.145Z,999.54
2023-02-25T10:09:03.546Z,999.52
2023-02-25T10:10:03.406Z,999.53
2023-02-25T10:11:03.306Z,999.49
2023-02-25T10:12:02.174Z,999.50
2023-02-25T10:13:02.399Z,999.51
2023-02-25T10:14:02.234Z,999.53
2023-02-25T10:15:02.298Z,999.52
2023-02-25T10:16:02.429Z,999.55
2023-02-25T10:17:03.253Z,999.57
2023-02-25T10:18:03.078Z,999.58
2023-02-25T10:19:03.209Z,999.65
2023-02-25T10:20:03.200Z,999.67
2023-02-25T10:21:02.877Z,999.69
2023-02-25T10:22:03.347Z,999.63
2023-02-25T10:23:02.833Z,999.65
2023-02-25T10:24:03.341Z,999.63
2023-02-25T10:25:03.409Z,999.64
2023-02-25T10:26:02.814Z,999.63
2023-02-25T10:27:02.443Z,999.62
2023-02-25T10:28:02.520Z,999.62
2023-02-25T10:29:02.583Z,999.61
2023-02-25T10:30:02.489Z,999.63
2023-02-25T10:31:02.573Z,999.66
2023-02-25T10:32:02.784Z,999.68
2023-02-25T10:33:02.869Z,999.63
2023-02-25T10:34:03.990Z,999.69
2023-02-25T10:35:02.417Z,999.75
2023-02-25T10:36:03.010Z,999.78
2023-02-25T10:37:02.698Z,999.79
2023-02-25T10:38:02.756Z,999.75
2023-02-25T10:39:02.919Z,999.75
2023-02-25T10:40:04.801Z,999.73
2023-02-25T10:41:03.120Z,999.75
2023-02-25T10:42:03.093Z,999.71
2023-02-25T10:43:02.939Z,999.72
2023-02-25T10:44:02.674Z,999.72
2023-02-25T10:45:02.859Z,999.78
2023-02-25T10:46:02.837Z,999.79
2023-02-25T10:47:03.296Z,999.72
2023-02-25T10:48:03.487Z,999.74
2023-02-25T10:49:03.062Z,999.77
2023-02-25T10:50:03.353Z,999.79
2023-02-25T10:51:03.354Z,999.76
2023-02-25T10:52:02.186Z,999.71
2023-02-25T10:53:02.483Z,999.77
2023-02-25T10:54:02.426Z,999.76
2023-02-25T10:55:02.296Z,999.77
2023-02-25T10:56:02.218Z,999.76
2023-02-25T10:57:02.554Z,999.74
2023-02-25T10:58:03.012Z,999.68
2023-02-25T10:59:02.795Z,999.66
2023-02-25T11:00:02.564Z,999.70
2023-02-25T11:01:02.689Z,999.75
2023-02-25T11:02:03.022Z,999.77
2023-02-25T11:03:02.833Z,999.82
2023-02-25T11:04:03.391Z,999.83
2023-02-25T11:05:03.383Z,999.89
2023-02-25T11:06:02.952Z,999.90
2023-02-25T11:07:03.388Z,999.84
2023-02-25T11:08:03.459Z,999.93
2023-02-25T11:09:03.468Z,999.86
2023-02-25T11:10:03.308Z,999.86
2023-02-25T11:11:03.677Z,999.86
2023-02-25T11:12:02.862Z,999.85
2023-02-25T11:13:02.685Z,999.82
2023-02-25T11:14:02.915Z,999.79
2023-02-25T11:15:03.251Z,999.87
2023-02-25T11:16:02.717Z,999.87
2023-02-25T11:17:02.910Z,999.90
2023-02-25T11:18:03.227Z,999.90
2023-02-25T11:19:02.942Z,999.89
2023-02-25T11:20:03.172Z,999.92
2023-02-25T11:21:03.181Z,999.96
2023-02-25T11:22:03.187Z,999.98
2023-02-25T11:23:03.461Z,999.96
2023-02-25T11:24:03.630Z,1000.01
2023-02-25T11:25:03.316Z,1000.06
2023-02-25T11:26:03.221Z,1000.06
2023-02-25T11:27:02.625Z,1000.11
2023-02-25T11:28:02.425Z,1000.16
2023-02-25T11:29:02.715Z,1000.19
2023-02-25T11:30:02.359Z,1000.17
2023-02-25T11:31:02.641Z,1000.16
2023-02-25T11:32:03.188Z,1000.09
2023-02-25T11:33:03.289Z,1000.11
2023-02-25T11:34:03.493Z,1000.05
2023-02-25T11:35:03.034Z,1000.09
2023-02-25T11:36:03.017Z,1000.04
2023-02-25T11:37:02.712Z,1000.02
2023-02-25T11:38:02.514Z,1000.02
2023-02-25T11:39:02.805Z,1000.03
2023-02-25T11:40:02.503Z,1000.06
2023-02-25T11:41:02.993Z,1000.03
2023-02-25T11:42:02.974Z,1000.08
2023-02-25T11:43:02.846Z,1000.03
2023-02-25T11:44:03.263Z,1000.02
2023-02-25T11:45:02.941Z,1000.02
2023-02-25T11:46:02.846Z,1000.03
2023-02-25T11:47:03.546Z,1000.00
2023-02-25T11:48:03.405Z,1000.00
2023-02-25T11:49:03.187Z,999.95
2023-02-25T11:50:03.605Z,999.91
2023-02-25T11:51:03.227Z,999.94
2023-02-25T11:52:02.544Z,999.91
2023-02-25T11:53:02.681Z,999.89
2023-02-25T11:54:02.143Z,999.92
2023-02-25T11:55:02.527Z,999.93
2023-02-25T11:56:02.260Z,999.92
2023-02-25T11:57:02.830Z,999.89
2023-02-25T11:58:03.013Z,999.89
2023-02-25T11:59:02.758Z,999.91
2023-02-25T12:00:02.882Z,999.92
2023-02-25T12:01:02.409Z,999.90
2023-02-25T12:02:02.955Z,999.89
2023-02-25T12:03:02.826Z,999.90
2023-02-25T12:04:02.568Z,999.88
2023-02-25T12:05:02.728Z,999.90
2023-02-25T12:06:03.136Z,999.93
2023-02-25T12:07:03.297Z,999.96
2023-02-25T12:08:13.656Z,999.96
2023-02-25T12:09:03.479Z,999.97
2023-02-25T12:10:02.906Z,999.96
2023-02-25T12:11:03.183Z,999.95
2023-02-25T12:12:03.103Z,999.95
2023-02-25T12:13:03.046Z,1000.01
2023-02-25T12:14:03.335Z,1000.08
2023-02-25T12:15:03.099Z,1000.21
2023-02-25T12:16:03.622Z,1000.30
2023-02-25T12:17:02.656Z,1000.39
2023-02-25T12:18:02.360Z,1000.36
2023-02-25T12:19:04.310Z,1000.41
2023-02-25T12:20:02.696Z,1000.40
2023-02-25T12:21:02.243Z,1000.30
2023-02-25T12:22:02.324Z,1000.31
2023-02-25T12:23:02.721Z,1000.32
2023-02-25T12:24:02.827Z,1000.27
2023-02-25T12:25:02.869Z,1000.30
2023-02-25T12:26:02.783Z,1000.32
2023-02-25T12:27:02.724Z,1000.31